sensor_id;sensor_type;location;lat;lon;timestamp;P1;durP1;ratioP1;P2;durP2;ratioP2
46391;SDS011;32098;49.448;7.904;2022-12-26T00:02:25;4.87;;;3.43;;
46391;SDS011;32098;49.448;7.904;2022-12-26T00:04:51;4.07;;;3.30;;
46391;SDS011;32098;49.448;7.904;2022-12-26T00:07:19;5.23;;;3.07;;
46391;SDS011;32098;49.448;7.904;2022-12-26T00:09:45;4.13;;;3.23;;
46391;SDS011;32098;49.448;7.904;2022-12-26T00:12:12;4.37;;;2.67;;
46391;SDS011;32098;49.448;7.904;2022-12-26T00:14:38;5.90;;;3.13;;
46391;SDS011;32098;49.448;7.904;2022-12-26T00:17:05;6.47;;;2.97;;
46391;SDS011;32098;49.448;7.904;2022-12-26T00:19:31;3.33;;;2.97;;
46391;SDS011;32098;49.448;7.904;2022-12-26T00:21:58;5.53;;;3.00;;
46391;SDS011;32098;49.448;7.904;2022-12-26T00:24:25;5.47;;;3.10;;
46391;SDS011;32098;49.448;7.904;2022-12-26T00:26:51;4.53;;;2.90;;
46391;SDS011;32098;49.448;7.904;2022-12-26T00:29:18;4.87;;;3.10;;
46391;SDS011;32098;49.448;7.904;2022-12-26T00:31:44;4.00;;;2.83;;
46391;SDS011;32098;49.448;7.904;2022-12-26T00:34:12;5.17;;;2.87;;
46391;SDS011;32098;49.448;7.904;2022-12-26T00:36:38;3.60;;;2.70;;
46391;SDS011;32098;49.448;7.904;2022-12-26T00:39:05;5.33;;;3.20;;
46391;SDS011;32098;49.448;7.904;2022-12-26T00:41:31;4.80;;;2.80;;
46391;SDS011;32098;49.448;7.904;2022-12-26T00:43:58;4.63;;;3.10;;
46391;SDS011;32098;49.448;7.904;2022-12-26T00:46:25;6.27;;;3.13;;
46391;SDS011;32098;49.448;7.904;2022-12-26T00:48:52;4.73;;;3.03;;
46391;SDS011;32098;49.448;7.904;2022-12-26T00:51:19;6.07;;;2.87;;
46391;SDS011;32098;49.448;7.904;2022-12-26T00:53:45;3.47;;;2.53;;
46391;SDS011;32098;49.448;7.904;2022-12-26T00:56:12;3.00;;;2.70;;
46391;SDS011;32098;49.448;7.904;2022-12-26T00:58:38;4.37;;;2.57;;
46391;SDS011;32098;49.448;7.904;2022-12-26T01:01:08;4.83;;;3.00;;
46391;SDS011;32098;49.448;7.904;2022-12-26T01:03:42;5.30;;;3.00;;
46391;SDS011;32098;49.448;7.904;2022-12-26T01:06:09;2.83;;;2.40;;
46391;SDS011;32098;49.448;7.904;2022-12-26T01:08:36;3.70;;;3.00;;
46391;SDS011;32098;49.448;7.904;2022-12-26T01:11:07;4.33;;;2.60;;
46391;SDS011;32098;49.448;7.904;2022-12-26T01:13:38;3.07;;;2.43;;
46391;SDS011;32098;49.448;7.904;2022-12-26T01:16:05;5.57;;;2.60;;
46391;SDS011;32098;49.448;7.904;2022-12-26T01:18:32;3.87;;;2.87;;
46391;SDS011;32098;49.448;7.904;2022-12-26T01:21:00;3.67;;;2.53;;
46391;SDS011;32098;49.448;7.904;2022-12-26T01:23:29;3.87;;;2.77;;
46391;SDS011;32098;49.448;7.904;2022-12-26T01:25:55;4.27;;;2.60;;
46391;SDS011;32098;49.448;7.904;2022-12-26T01:28:42;2.83;;;2.27;;
46391;SDS011;32098;49.448;7.904;2022-12-26T01:31:08;6.90;;;2.83;;
46391;SDS011;32098;49.448;7.904;2022-12-26T01:33:34;3.83;;;2.60;;
46391;SDS011;32098;49.448;7.904;2022-12-26T01:36:01;2.87;;;2.33;;
46391;SDS011;32098;49.448;7.904;2022-12-26T01:38:28;3.57;;;2.67;;
46391;SDS011;32098;49.448;7.904;2022-12-26T01:40:54;3.20;;;2.73;;
46391;SDS011;32098;49.448;7.904;2022-12-26T01:43:56;3.47;;;2.40;;
46391;SDS011;32098;49.448;7.904;2022-12-26T01:46:48;4.27;;;2.40;;
46391;SDS011;32098;49.448;7.904;2022-12-26T01:49:20;4.37;;;2.53;;
46391;SDS011;32098;49.448;7.904;2022-12-26T01:51:52;3.27;;;2.40;;
46391;SDS011;32098;49.448;7.904;2022-12-26T01:54:23;5.90;;;2.60;;
46391;SDS011;32098;49.448;7.904;2022-12-26T01:57:27;4.33;;;3.13;;
46391;SDS011;32098;49.448;7.904;2022-12-26T02:00:07;6.73;;;4.63;;
46391;SDS011;32098;49.448;7.904;2022-12-26T02:02:41;3.90;;;3.17;;
46391;SDS011;32098;49.448;7.904;2022-12-26T02:05:28;4.57;;;2.87;;
46391;SDS011;32098;49.448;7.904;2022-12-26T02:08:02;3.83;;;2.40;;
46391;SDS011;32098;49.448;7.904;2022-12-26T02:10:32;4.53;;;2.60;;
46391;SDS011;32098;49.448;7.904;2022-12-26T02:13:04;4.47;;;2.40;;
46391;SDS011;32098;49.448;7.904;2022-12-26T02:15:32;4.77;;;2.60;;
46391;SDS011;32098;49.448;7.904;2022-12-26T02:17:58;5.13;;;2.10;;
46391;SDS011;32098;49.448;7.904;2022-12-26T02:20:26;3.83;;;2.47;;
46391;SDS011;32098;49.448;7.904;2022-12-26T02:29:13;4.60;;;2.83;;
46391;SDS011;32098;49.448;7.904;2022-12-26T02:40:12;4.47;;;2.80;;
46391;SDS011;32098;49.448;7.904;2022-12-26T02:43:03;4.73;;;2.50;;
46391;SDS011;32098;49.448;7.904;2022-12-26T02:45:38;4.83;;;2.50;;
46391;SDS011;32098;49.448;7.904;2022-12-26T02:54:26;5.03;;;2.80;;
46391;SDS011;32098;49.448;7.904;2022-12-26T02:57:23;3.47;;;2.60;;
46391;SDS011;32098;49.448;7.904;2022-12-26T03:00:14;4.73;;;2.30;;
46391;SDS011;32098;49.448;7.904;2022-12-26T03:03:07;4.77;;;2.47;;
46391;SDS011;32098;49.448;7.904;2022-12-26T03:05:55;4.53;;;2.40;;
46391;SDS011;32098;49.448;7.904;2022-12-26T03:08:49;3.43;;;2.50;;
46391;SDS011;32098;49.448;7.904;2022-12-26T03:11:39;5.10;;;2.10;;
46391;SDS011;32098;49.448;7.904;2022-12-26T03:14:41;5.17;;;2.40;;
46391;SDS011;32098;49.448;7.904;2022-12-26T03:17:23;3.50;;;2.40;;
46391;SDS011;32098;49.448;7.904;2022-12-26T03:20:15;4.40;;;2.60;;
46391;SDS011;32098;49.448;7.904;2022-12-26T03:22:46;3.50;;;2.40;;
46391;SDS011;32098;49.448;7.904;2022-12-26T03:25:18;7.27;;;2.50;;
46391;SDS011;32098;49.448;7.904;2022-12-26T03:28:11;2.53;;;2.33;;
46391;SDS011;32098;49.448;7.904;2022-12-26T03:30:39;5.60;;;2.53;;
46391;SDS011;32098;49.448;7.904;2022-12-26T03:33:22;6.97;;;2.57;;
46391;SDS011;32098;49.448;7.904;2022-12-26T03:36:24;3.90;;;2.47;;
46391;SDS011;32098;49.448;7.904;2022-12-26T03:39:21;3.50;;;2.40;;
46391;SDS011;32098;49.448;7.904;2022-12-26T03:42:46;5.23;;;2.73;;
46391;SDS011;32098;49.448;7.904;2022-12-26T03:45:38;4.33;;;2.63;;
46391;SDS011;32098;49.448;7.904;2022-12-26T03:51:36;3.90;;;2.47;;
46391;SDS011;32098;49.448;7.904;2022-12-26T03:57:40;4.77;;;2.60;;
46391;SDS011;32098;49.448;7.904;2022-12-26T04:00:33;3.97;;;2.70;;
46391;SDS011;32098;49.448;7.904;2022-12-26T04:03:20;5.37;;;2.77;;
46391;SDS011;32098;49.448;7.904;2022-12-26T04:06:11;3.63;;;2.60;;
46391;SDS011;32098;49.448;7.904;2022-12-26T04:09:06;4.13;;;2.40;;
46391;SDS011;32098;49.448;7.904;2022-12-26T04:11:56;4.37;;;2.63;;
46391;SDS011;32098;49.448;7.904;2022-12-26T04:14:53;5.40;;;2.30;;
46391;SDS011;32098;49.448;7.904;2022-12-26T04:17:48;8.83;;;2.97;;
46391;SDS011;32098;49.448;7.904;2022-12-26T04:23:42;5.20;;;3.20;;
46391;SDS011;32098;49.448;7.904;2022-12-26T04:26:35;5.97;;;3.30;;
46391;SDS011;32098;49.448;7.904;2022-12-26T04:29:24;4.77;;;2.63;;
46391;SDS011;32098;49.448;7.904;2022-12-26T04:32:13;4.93;;;3.17;;
46391;SDS011;32098;49.448;7.904;2022-12-26T04:35:15;6.03;;;3.10;;
46391;SDS011;32098;49.448;7.904;2022-12-26T04:38:05;4.27;;;2.57;;
46391;SDS011;32098;49.448;7.904;2022-12-26T04:40:53;4.27;;;2.67;;
46391;SDS011;32098;49.448;7.904;2022-12-26T04:43:42;3.30;;;2.40;;
46391;SDS011;32098;49.448;7.904;2022-12-26T04:46:28;4.03;;;2.33;;
46391;SDS011;32098;49.448;7.904;2022-12-26T04:48:57;4.03;;;2.60;;
46391;SDS011;32098;49.448;7.904;2022-12-26T04:51:44;4.10;;;2.50;;
46391;SDS011;32098;49.448;7.904;2022-12-26T04:54:10;4.53;;;2.77;;
46391;SDS011;32098;49.448;7.904;2022-12-26T04:56:36;4.13;;;2.60;;
46391;SDS011;32098;49.448;7.904;2022-12-26T04:59:03;7.07;;;2.80;;
46391;SDS011;32098;49.448;7.904;2022-12-26T05:01:30;5.93;;;2.83;;
46391;SDS011;32098;49.448;7.904;2022-12-26T05:04:16;5.10;;;2.80;;
46391;SDS011;32098;49.448;7.904;2022-12-26T05:07:02;3.70;;;2.80;;
46391;SDS011;32098;49.448;7.904;2022-12-26T05:09:50;4.93;;;2.97;;
46391;SDS011;32098;49.448;7.904;2022-12-26T05:12:19;3.83;;;2.40;;
46391;SDS011;32098;49.448;7.904;2022-12-26T05:14:46;5.03;;;2.50;;
46391;SDS011;32098;49.448;7.904;2022-12-26T05:17:12;3.33;;;2.50;;
46391;SDS011;32098;49.448;7.904;2022-12-26T05:19:58;4.10;;;2.67;;
46391;SDS011;32098;49.448;7.904;2022-12-26T05:22:43;4.33;;;2.67;;
46391;SDS011;32098;49.448;7.904;2022-12-26T05:25:30;3.57;;;2.30;;
46391;SDS011;32098;49.448;7.904;2022-12-26T05:28:18;3.80;;;2.50;;
46391;SDS011;32098;49.448;7.904;2022-12-26T05:31:04;3.83;;;2.50;;
46391;SDS011;32098;49.448;7.904;2022-12-26T05:33:31;4.60;;;2.40;;
46391;SDS011;32098;49.448;7.904;2022-12-26T05:36:18;4.57;;;2.67;;
46391;SDS011;32098;49.448;7.904;2022-12-26T05:38:46;4.20;;;2.80;;
46391;SDS011;32098;49.448;7.904;2022-12-26T05:41:14;4.07;;;2.57;;
46391;SDS011;32098;49.448;7.904;2022-12-26T05:43:41;3.97;;;2.67;;
46391;SDS011;32098;49.448;7.904;2022-12-26T05:46:07;5.53;;;2.63;;
46391;SDS011;32098;49.448;7.904;2022-12-26T05:48:34;5.40;;;2.93;;
46391;SDS011;32098;49.448;7.904;2022-12-26T05:51:01;3.00;;;2.70;;
46391;SDS011;32098;49.448;7.904;2022-12-26T05:53:28;3.40;;;2.57;;
46391;SDS011;32098;49.448;7.904;2022-12-26T05:56:03;7.57;;;3.47;;
46391;SDS011;32098;49.448;7.904;2022-12-26T05:58:35;5.93;;;2.87;;
46391;SDS011;32098;49.448;7.904;2022-12-26T06:01:06;3.30;;;2.50;;
46391;SDS011;32098;49.448;7.904;2022-12-26T06:03:34;4.47;;;2.70;;
46391;SDS011;32098;49.448;7.904;2022-12-26T06:06:02;3.73;;;2.80;;
46391;SDS011;32098;49.448;7.904;2022-12-26T06:08:30;4.50;;;2.83;;
46391;SDS011;32098;49.448;7.904;2022-12-26T06:10:56;3.87;;;2.97;;
46391;SDS011;32098;49.448;7.904;2022-12-26T06:13:23;5.23;;;3.03;;
46391;SDS011;32098;49.448;7.904;2022-12-26T06:15:49;4.23;;;2.83;;
46391;SDS011;32098;49.448;7.904;2022-12-26T06:18:16;5.43;;;3.03;;
46391;SDS011;32098;49.448;7.904;2022-12-26T06:20:42;4.27;;;2.93;;
46391;SDS011;32098;49.448;7.904;2022-12-26T06:23:09;6.30;;;3.47;;
46391;SDS011;32098;49.448;7.904;2022-12-26T06:25:35;4.63;;;3.43;;
46391;SDS011;32098;49.448;7.904;2022-12-26T06:28:01;5.33;;;3.70;;
46391;SDS011;32098;49.448;7.904;2022-12-26T06:30:28;4.40;;;3.03;;
46391;SDS011;32098;49.448;7.904;2022-12-26T06:32:55;6.13;;;4.03;;
46391;SDS011;32098;49.448;7.904;2022-12-26T06:35:21;8.03;;;4.10;;
46391;SDS011;32098;49.448;7.904;2022-12-26T06:37:47;6.63;;;3.53;;
46391;SDS011;32098;49.448;7.904;2022-12-26T06:40:14;5.23;;;3.40;;
46391;SDS011;32098;49.448;7.904;2022-12-26T06:42:40;7.20;;;3.60;;
46391;SDS011;32098;49.448;7.904;2022-12-26T06:45:07;4.50;;;3.50;;
46391;SDS011;32098;49.448;7.904;2022-12-26T06:47:34;4.90;;;3.27;;
46391;SDS011;32098;49.448;7.904;2022-12-26T06:50:02;4.07;;;3.40;;
46391;SDS011;32098;49.448;7.904;2022-12-26T06:52:28;5.80;;;3.30;;
46391;SDS011;32098;49.448;7.904;2022-12-26T06:54:55;5.53;;;3.40;;
46391;SDS011;32098;49.448;7.904;2022-12-26T06:57:23;7.67;;;3.90;;
46391;SDS011;32098;49.448;7.904;2022-12-26T06:59:50;5.73;;;3.97;;
46391;SDS011;32098;49.448;7.904;2022-12-26T07:02:16;5.33;;;3.67;;
46391;SDS011;32098;49.448;7.904;2022-12-26T07:04:43;5.97;;;3.50;;
46391;SDS011;32098;49.448;7.904;2022-12-26T07:07:09;5.30;;;3.27;;
46391;SDS011;32098;49.448;7.904;2022-12-26T07:09:36;4.93;;;3.13;;
46391;SDS011;32098;49.448;7.904;2022-12-26T07:12:02;3.20;;;2.83;;
46391;SDS011;32098;49.448;7.904;2022-12-26T07:14:29;3.93;;;3.10;;
46391;SDS011;32098;49.448;7.904;2022-12-26T07:16:55;6.80;;;3.13;;
46391;SDS011;32098;49.448;7.904;2022-12-26T07:19:22;5.43;;;2.80;;
46391;SDS011;32098;49.448;7.904;2022-12-26T07:21:48;4.43;;;2.93;;
46391;SDS011;32098;49.448;7.904;2022-12-26T07:24:16;4.93;;;3.27;;
46391;SDS011;32098;49.448;7.904;2022-12-26T07:26:47;4.53;;;3.07;;
46391;SDS011;32098;49.448;7.904;2022-12-26T07:29:14;6.03;;;2.93;;
46391;SDS011;32098;49.448;7.904;2022-12-26T07:31:41;5.00;;;2.83;;
46391;SDS011;32098;49.448;7.904;2022-12-26T07:34:07;4.10;;;2.70;;
46391;SDS011;32098;49.448;7.904;2022-12-26T07:36:34;3.50;;;2.43;;
46391;SDS011;32098;49.448;7.904;2022-12-26T07:39:00;4.33;;;2.70;;
46391;SDS011;32098;49.448;7.904;2022-12-26T07:41:27;4.47;;;2.90;;
46391;SDS011;32098;49.448;7.904;2022-12-26T07:44:12;4.10;;;2.70;;
46391;SDS011;32098;49.448;7.904;2022-12-26T07:46:39;5.03;;;3.33;;
46391;SDS011;32098;49.448;7.904;2022-12-26T07:49:05;4.80;;;2.90;;
46391;SDS011;32098;49.448;7.904;2022-12-26T07:51:32;4.17;;;3.10;;
46391;SDS011;32098;49.448;7.904;2022-12-26T07:53:59;3.43;;;2.50;;
46391;SDS011;32098;49.448;7.904;2022-12-26T07:56:32;3.83;;;2.90;;
46391;SDS011;32098;49.448;7.904;2022-12-26T07:58:59;3.40;;;2.63;;
46391;SDS011;32098;49.448;7.904;2022-12-26T08:01:26;3.60;;;2.80;;
46391;SDS011;32098;49.448;7.904;2022-12-26T08:03:53;7.40;;;2.70;;
46391;SDS011;32098;49.448;7.904;2022-12-26T08:06:20;4.10;;;2.67;;
46391;SDS011;32098;49.448;7.904;2022-12-26T08:08:46;3.10;;;2.50;;
46391;SDS011;32098;49.448;7.904;2022-12-26T08:11:17;3.90;;;3.20;;
46391;SDS011;32098;49.448;7.904;2022-12-26T08:13:47;5.23;;;2.83;;
46391;SDS011;32098;49.448;7.904;2022-12-26T08:16:14;4.10;;;2.90;;
46391;SDS011;32098;49.448;7.904;2022-12-26T08:18:41;4.57;;;2.40;;
46391;SDS011;32098;49.448;7.904;2022-12-26T08:21:08;4.60;;;2.93;;
46391;SDS011;32098;49.448;7.904;2022-12-26T08:23:35;4.57;;;2.57;;
46391;SDS011;32098;49.448;7.904;2022-12-26T08:26:08;3.57;;;2.40;;
46391;SDS011;32098;49.448;7.904;2022-12-26T08:28:40;7.83;;;4.57;;
46391;SDS011;32098;49.448;7.904;2022-12-26T08:31:07;5.03;;;3.53;;
46391;SDS011;32098;49.448;7.904;2022-12-26T08:33:35;2.77;;;2.30;;
46391;SDS011;32098;49.448;7.904;2022-12-26T08:36:02;5.10;;;2.53;;
46391;SDS011;32098;49.448;7.904;2022-12-26T08:38:33;3.23;;;2.57;;
46391;SDS011;32098;49.448;7.904;2022-12-26T08:41:00;5.97;;;3.07;;
46391;SDS011;32098;49.448;7.904;2022-12-26T08:43:27;4.43;;;3.03;;
46391;SDS011;32098;49.448;7.904;2022-12-26T08:46:14;3.47;;;2.70;;
46391;SDS011;32098;49.448;7.904;2022-12-26T08:48:40;4.70;;;3.20;;
46391;SDS011;32098;49.448;7.904;2022-12-26T08:51:10;4.77;;;3.93;;
46391;SDS011;32098;49.448;7.904;2022-12-26T08:53:39;4.10;;;3.70;;
46391;SDS011;32098;49.448;7.904;2022-12-26T08:56:07;3.87;;;3.47;;
46391;SDS011;32098;49.448;7.904;2022-12-26T08:58:37;4.13;;;3.17;;
46391;SDS011;32098;49.448;7.904;2022-12-26T09:01:08;3.70;;;3.40;;
46391;SDS011;32098;49.448;7.904;2022-12-26T09:03:37;4.27;;;2.90;;
46391;SDS011;32098;49.448;7.904;2022-12-26T09:06:04;3.30;;;2.47;;
46391;SDS011;32098;49.448;7.904;2022-12-26T09:08:32;2.93;;;2.23;;
46391;SDS011;32098;49.448;7.904;2022-12-26T09:11:04;3.33;;;2.77;;
46391;SDS011;32098;49.448;7.904;2022-12-26T09:13:35;2.90;;;2.33;;
46391;SDS011;32098;49.448;7.904;2022-12-26T09:16:12;3.23;;;2.57;;
46391;SDS011;32098;49.448;7.904;2022-12-26T09:18:47;4.43;;;3.50;;
46391;SDS011;32098;49.448;7.904;2022-12-26T09:21:18;3.47;;;2.80;;
46391;SDS011;32098;49.448;7.904;2022-12-26T09:23:44;4.00;;;2.80;;
46391;SDS011;32098;49.448;7.904;2022-12-26T09:26:15;3.10;;;2.60;;
46391;SDS011;32098;49.448;7.904;2022-12-26T09:28:43;3.00;;;2.57;;
46391;SDS011;32098;49.448;7.904;2022-12-26T09:31:15;4.70;;;2.40;;
46391;SDS011;32098;49.448;7.904;2022-12-26T09:33:43;2.70;;;2.20;;
46391;SDS011;32098;49.448;7.904;2022-12-26T09:36:11;4.40;;;2.70;;
46391;SDS011;32098;49.448;7.904;2022-12-26T09:38:44;3.50;;;2.10;;
46391;SDS011;32098;49.448;7.904;2022-12-26T09:49:21;4.83;;;3.60;;
46391;SDS011;32098;49.448;7.904;2022-12-26T09:51:56;4.17;;;3.07;;
46391;SDS011;32098;49.448;7.904;2022-12-26T09:54:30;3.77;;;2.90;;
46391;SDS011;32098;49.448;7.904;2022-12-26T09:57:00;3.10;;;2.33;;
46391;SDS011;32098;49.448;7.904;2022-12-26T09:59:43;4.10;;;2.57;;
46391;SDS011;32098;49.448;7.904;2022-12-26T10:02:16;4.10;;;2.80;;
46391;SDS011;32098;49.448;7.904;2022-12-26T10:04:48;3.67;;;2.90;;
46391;SDS011;32098;49.448;7.904;2022-12-26T10:10:13;3.20;;;2.77;;
46391;SDS011;32098;49.448;7.904;2022-12-26T10:13:09;3.13;;;2.33;;
46391;SDS011;32098;49.448;7.904;2022-12-26T10:15:48;4.13;;;2.70;;
46391;SDS011;32098;49.448;7.904;2022-12-26T10:24:10;3.40;;;2.30;;
46391;SDS011;32098;49.448;7.904;2022-12-26T10:26:46;4.37;;;3.30;;
46391;SDS011;32098;49.448;7.904;2022-12-26T10:29:26;4.43;;;3.47;;
46391;SDS011;32098;49.448;7.904;2022-12-26T10:32:00;3.70;;;2.90;;
46391;SDS011;32098;49.448;7.904;2022-12-26T10:34:47;2.50;;;2.20;;
46391;SDS011;32098;49.448;7.904;2022-12-26T10:37:34;5.03;;;3.17;;
46391;SDS011;32098;49.448;7.904;2022-12-26T10:40:21;4.20;;;3.30;;
46391;SDS011;32098;49.448;7.904;2022-12-26T10:42:53;6.13;;;3.30;;
46391;SDS011;32098;49.448;7.904;2022-12-26T10:45:40;3.73;;;2.20;;
46391;SDS011;32098;49.448;7.904;2022-12-26T10:48:13;3.87;;;2.27;;
46391;SDS011;32098;49.448;7.904;2022-12-26T10:50:43;4.10;;;3.20;;
46391;SDS011;32098;49.448;7.904;2022-12-26T10:53:13;4.37;;;3.10;;
46391;SDS011;32098;49.448;7.904;2022-12-26T10:55:41;6.03;;;3.80;;
46391;SDS011;32098;49.448;7.904;2022-12-26T10:58:18;3.23;;;2.50;;
46391;SDS011;32098;49.448;7.904;2022-12-26T11:00:48;3.80;;;2.53;;
46391;SDS011;32098;49.448;7.904;2022-12-26T11:03:18;3.93;;;2.50;;
46391;SDS011;32098;49.448;7.904;2022-12-26T11:05:50;3.57;;;2.20;;
46391;SDS011;32098;49.448;7.904;2022-12-26T11:08:47;3.43;;;2.17;;
46391;SDS011;32098;49.448;7.904;2022-12-26T11:11:31;3.10;;;2.30;;
46391;SDS011;32098;49.448;7.904;2022-12-26T11:14:32;2.57;;;1.80;;
46391;SDS011;32098;49.448;7.904;2022-12-26T11:17:11;2.73;;;2.30;;
46391;SDS011;32098;49.448;7.904;2022-12-26T11:19:48;3.73;;;2.03;;
46391;SDS011;32098;49.448;7.904;2022-12-26T11:22:19;3.30;;;2.10;;
46391;SDS011;32098;49.448;7.904;2022-12-26T11:25:25;2.53;;;2.07;;
46391;SDS011;32098;49.448;7.904;2022-12-26T11:27:49;2.97;;;1.87;;
46391;SDS011;32098;49.448;7.904;2022-12-26T11:38:26;3.90;;;2.10;;
46391;SDS011;32098;49.448;7.904;2022-12-26T11:46:40;2.73;;;1.90;;
46391;SDS011;32098;49.448;7.904;2022-12-26T11:51:55;2.53;;;1.90;;
46391;SDS011;32098;49.448;7.904;2022-12-26T11:54:26;3.90;;;2.00;;
46391;SDS011;32098;49.448;7.904;2022-12-26T11:57:07;2.90;;;1.70;;
46391;SDS011;32098;49.448;7.904;2022-12-26T11:59:41;3.47;;;1.60;;
46391;SDS011;32098;49.448;7.904;2022-12-26T12:02:20;2.23;;;1.70;;
46391;SDS011;32098;49.448;7.904;2022-12-26T12:04:51;3.27;;;1.70;;
46391;SDS011;32098;49.448;7.904;2022-12-26T12:07:25;2.27;;;1.63;;
46391;SDS011;32098;49.448;7.904;2022-12-26T12:13:22;3.07;;;1.67;;
46391;SDS011;32098;49.448;7.904;2022-12-26T12:19:33;2.23;;;1.90;;
46391;SDS011;32098;49.448;7.904;2022-12-26T12:24:45;4.00;;;1.90;;
46391;SDS011;32098;49.448;7.904;2022-12-26T12:27:40;3.53;;;1.90;;
46391;SDS011;32098;49.448;7.904;2022-12-26T12:30:14;3.20;;;1.90;;
46391;SDS011;32098;49.448;7.904;2022-12-26T12:38:30;3.93;;;2.27;;
46391;SDS011;32098;49.448;7.904;2022-12-26T12:41:05;7.07;;;4.87;;
46391;SDS011;32098;49.448;7.904;2022-12-26T12:52:32;8.13;;;4.60;;
46391;SDS011;32098;49.448;7.904;2022-12-26T12:55:16;5.60;;;3.33;;
46391;SDS011;32098;49.448;7.904;2022-12-26T12:57:53;5.77;;;3.17;;
46391;SDS011;32098;49.448;7.904;2022-12-26T13:00:26;6.60;;;3.70;;
46391;SDS011;32098;49.448;7.904;2022-12-26T13:03:09;5.93;;;3.87;;
46391;SDS011;32098;49.448;7.904;2022-12-26T13:05:53;6.47;;;3.03;;
46391;SDS011;32098;49.448;7.904;2022-12-26T13:08:47;5.23;;;3.10;;
46391;SDS011;32098;49.448;7.904;2022-12-26T13:16:37;8.57;;;4.80;;
46391;SDS011;32098;49.448;7.904;2022-12-26T13:19:25;6.20;;;3.17;;
46391;SDS011;32098;49.448;7.904;2022-12-26T13:21:56;6.17;;;3.60;;
46391;SDS011;32098;49.448;7.904;2022-12-26T13:24:38;10.30;;;5.13;;
46391;SDS011;32098;49.448;7.904;2022-12-26T13:27:15;6.57;;;3.87;;
46391;SDS011;32098;49.448;7.904;2022-12-26T13:29:46;9.17;;;4.87;;
46391;SDS011;32098;49.448;7.904;2022-12-26T13:34:49;8.93;;;4.80;;
46391;SDS011;32098;49.448;7.904;2022-12-26T13:40:05;2.60;;;1.93;;
46391;SDS011;32098;49.448;7.904;2022-12-26T13:46:00;2.90;;;1.60;;
46391;SDS011;32098;49.448;7.904;2022-12-26T13:50:56;4.80;;;2.47;;
46391;SDS011;32098;49.448;7.904;2022-12-26T13:53:29;4.27;;;2.13;;
46391;SDS011;32098;49.448;7.904;2022-12-26T13:55:58;4.03;;;3.43;;
46391;SDS011;32098;49.448;7.904;2022-12-26T14:04:31;5.47;;;3.57;;
46391;SDS011;32098;49.448;7.904;2022-12-26T14:10:32;4.13;;;2.13;;
46391;SDS011;32098;49.448;7.904;2022-12-26T14:13:12;2.37;;;1.60;;
46391;SDS011;32098;49.448;7.904;2022-12-26T14:16:24;1.87;;;1.30;;
46391;SDS011;32098;49.448;7.904;2022-12-26T14:21:30;2.97;;;2.00;;
46391;SDS011;32098;49.448;7.904;2022-12-26T14:29:21;3.53;;;1.83;;
46391;SDS011;32098;49.448;7.904;2022-12-26T14:37:16;2.57;;;1.43;;
46391;SDS011;32098;49.448;7.904;2022-12-26T14:45:38;2.30;;;1.70;;
46391;SDS011;32098;49.448;7.904;2022-12-26T14:53:31;5.80;;;2.03;;
46391;SDS011;32098;49.448;7.904;2022-12-26T15:03:47;2.30;;;2.00;;
46391;SDS011;32098;49.448;7.904;2022-12-26T15:15:17;4.63;;;2.43;;
46391;SDS011;32098;49.448;7.904;2022-12-26T15:39:47;4.00;;;2.10;;
46391;SDS011;32098;49.448;7.904;2022-12-26T15:42:38;3.03;;;2.47;;
46391;SDS011;32098;49.448;7.904;2022-12-26T15:45:22;5.73;;;2.00;;
46391;SDS011;32098;49.448;7.904;2022-12-26T15:47:57;6.03;;;2.63;;
46391;SDS011;32098;49.448;7.904;2022-12-26T15:53:55;3.07;;;1.70;;
46391;SDS011;32098;49.448;7.904;2022-12-26T16:04:56;1.97;;;1.30;;
46391;SDS011;32098;49.448;7.904;2022-12-26T16:07:34;2.27;;;1.13;;
46391;SDS011;32098;49.448;7.904;2022-12-26T16:10:25;2.10;;;1.30;;
46391;SDS011;32098;49.448;7.904;2022-12-26T16:15:53;2.93;;;1.20;;
46391;SDS011;32098;49.448;7.904;2022-12-26T16:18:26;2.23;;;1.13;;
46391;SDS011;32098;49.448;7.904;2022-12-26T16:20:58;0.90;;;0.90;;
46391;SDS011;32098;49.448;7.904;2022-12-26T16:23:47;2.10;;;1.00;;
46391;SDS011;32098;49.448;7.904;2022-12-26T16:26:17;1.77;;;1.13;;
46391;SDS011;32098;49.448;7.904;2022-12-26T16:28:49;1.67;;;1.10;;
46391;SDS011;32098;49.448;7.904;2022-12-26T16:31:20;1.53;;;0.73;;
46391;SDS011;32098;49.448;7.904;2022-12-26T16:33:50;2.20;;;1.40;;
46391;SDS011;32098;49.448;7.904;2022-12-26T16:36:23;1.20;;;0.80;;
46391;SDS011;32098;49.448;7.904;2022-12-26T16:38:52;2.60;;;1.27;;
46391;SDS011;32098;49.448;7.904;2022-12-26T16:41:23;2.40;;;0.80;;
46391;SDS011;32098;49.448;7.904;2022-12-26T16:43:52;1.17;;;0.70;;
46391;SDS011;32098;49.448;7.904;2022-12-26T16:46:23;1.83;;;1.00;;
46391;SDS011;32098;49.448;7.904;2022-12-26T16:48:58;2.40;;;1.13;;
46391;SDS011;32098;49.448;7.904;2022-12-26T16:51:39;2.43;;;0.80;;
46391;SDS011;32098;49.448;7.904;2022-12-26T17:02:28;2.50;;;1.80;;
46391;SDS011;32098;49.448;7.904;2022-12-26T17:04:59;4.17;;;2.80;;
46391;SDS011;32098;49.448;7.904;2022-12-26T17:07:29;2.87;;;1.90;;
46391;SDS011;32098;49.448;7.904;2022-12-26T17:09:57;1.53;;;1.20;;
46391;SDS011;32098;49.448;7.904;2022-12-26T17:12:33;2.93;;;0.60;;
46391;SDS011;32098;49.448;7.904;2022-12-26T17:15:03;0.53;;;0.40;;
46391;SDS011;32098;49.448;7.904;2022-12-26T17:17:32;2.00;;;0.60;;
46391;SDS011;32098;49.448;7.904;2022-12-26T17:23:01;2.07;;;1.07;;
46391;SDS011;32098;49.448;7.904;2022-12-26T17:26:17;2.43;;;0.90;;
46391;SDS011;32098;49.448;7.904;2022-12-26T17:28:49;12.40;;;6.10;;
46391;SDS011;32098;49.448;7.904;2022-12-26T17:31:17;15.13;;;7.23;;
46391;SDS011;32098;49.448;7.904;2022-12-26T17:33:48;19.73;;;9.13;;
46391;SDS011;32098;49.448;7.904;2022-12-26T17:36:14;10.07;;;5.10;;
46391;SDS011;32098;49.448;7.904;2022-12-26T17:39:09;1.80;;;1.70;;
46391;SDS011;32098;49.448;7.904;2022-12-26T17:41:40;1.50;;;1.40;;
46391;SDS011;32098;49.448;7.904;2022-12-26T17:47:19;4.60;;;1.73;;
46391;SDS011;32098;49.448;7.904;2022-12-26T17:49:51;1.43;;;1.33;;
46391;SDS011;32098;49.448;7.904;2022-12-26T17:52:20;2.93;;;1.70;;
46391;SDS011;32098;49.448;7.904;2022-12-26T17:54:50;2.47;;;1.43;;
46391;SDS011;32098;49.448;7.904;2022-12-26T17:57:21;2.33;;;1.10;;
46391;SDS011;32098;49.448;7.904;2022-12-26T17:59:53;3.70;;;2.13;;
46391;SDS011;32098;49.448;7.904;2022-12-26T18:02:20;2.93;;;2.30;;
46391;SDS011;32098;49.448;7.904;2022-12-26T18:04:48;2.70;;;1.40;;
46391;SDS011;32098;49.448;7.904;2022-12-26T18:07:19;2.70;;;2.00;;
46391;SDS011;32098;49.448;7.904;2022-12-26T18:09:56;1.83;;;1.10;;
46391;SDS011;32098;49.448;7.904;2022-12-26T18:12:24;6.67;;;1.73;;
46391;SDS011;32098;49.448;7.904;2022-12-26T18:14:50;1.70;;;1.50;;
46391;SDS011;32098;49.448;7.904;2022-12-26T18:17:24;1.70;;;0.97;;
46391;SDS011;32098;49.448;7.904;2022-12-26T18:19:51;0.73;;;0.67;;
46391;SDS011;32098;49.448;7.904;2022-12-26T18:22:18;0.53;;;0.53;;
46391;SDS011;32098;49.448;7.904;2022-12-26T18:24:45;1.93;;;0.57;;
46391;SDS011;32098;49.448;7.904;2022-12-26T18:27:16;1.20;;;0.80;;
46391;SDS011;32098;49.448;7.904;2022-12-26T18:29:44;2.23;;;0.67;;
46391;SDS011;32098;49.448;7.904;2022-12-26T18:32:18;1.93;;;0.70;;
46391;SDS011;32098;49.448;7.904;2022-12-26T18:34:48;2.20;;;0.80;;
46391;SDS011;32098;49.448;7.904;2022-12-26T18:37:15;2.03;;;1.20;;
46391;SDS011;32098;49.448;7.904;2022-12-26T18:39:42;3.97;;;1.30;;
46391;SDS011;32098;49.448;7.904;2022-12-26T18:42:10;3.00;;;1.20;;
46391;SDS011;32098;49.448;7.904;2022-12-26T18:44:38;1.50;;;1.30;;
46391;SDS011;32098;49.448;7.904;2022-12-26T18:47:05;1.77;;;1.60;;
46391;SDS011;32098;49.448;7.904;2022-12-26T18:49:32;5.00;;;3.40;;
46391;SDS011;32098;49.448;7.904;2022-12-26T18:51:58;2.97;;;1.70;;
46391;SDS011;32098;49.448;7.904;2022-12-26T18:54:25;4.20;;;2.67;;
46391;SDS011;32098;49.448;7.904;2022-12-26T18:56:51;2.23;;;1.53;;